sensor_id;sensor_type;location;lat;lon;timestamp;P1;durP1;ratioP1;P2;durP2;ratioP2
20073;SDS011;10197;54.282;10.078;2022-11-25T00:01:02;13.38;;;8.27;;
20073;SDS011;10197;54.282;10.078;2022-11-25T00:03:29;13.13;;;8.40;;
20073;SDS011;10197;54.282;10.078;2022-11-25T00:05:56;14.27;;;8.88;;
20073;SDS011;10197;54.282;10.078;2022-11-25T00:08:23;11.75;;;8.98;;
20073;SDS011;10197;54.282;10.078;2022-11-25T00:10:51;10.85;;;8.43;;
20073;SDS011;10197;54.282;10.078;2022-11-25T00:13:18;12.13;;;8.75;;
20073;SDS011;10197;54.282;10.078;2022-11-25T00:15:45;14.75;;;10.07;;
20073;SDS011;10197;54.282;10.078;2022-11-25T00:18:12;12.85;;;9.45;;
20073;SDS011;10197;54.282;10.078;2022-11-25T00:20:39;12.10;;;8.60;;
20073;SDS011;10197;54.282;10.078;2022-11-25T00:23:06;16.92;;;9.45;;
20073;SDS011;10197;54.282;10.078;2022-11-25T00:25:33;12.75;;;9.27;;
20073;SDS011;10197;54.282;10.078;2022-11-25T00:28:02;14.65;;;10.13;;
20073;SDS011;10197;54.282;10.078;2022-11-25T00:30:29;14.10;;;10.75;;
20073;SDS011;10197;54.282;10.078;2022-11-25T00:32:57;13.48;;;9.93;;
20073;SDS011;10197;54.282;10.078;2022-11-25T00:35:25;13.35;;;9.75;;
20073;SDS011;10197;54.282;10.078;2022-11-25T00:37:52;13.70;;;10.60;;
20073;SDS011;10197;54.282;10.078;2022-11-25T00:40:19;15.85;;;10.98;;
20073;SDS011;10197;54.282;10.078;2022-11-25T00:42:46;17.83;;;11.38;;
20073;SDS011;10197;54.282;10.078;2022-11-25T00:45:32;16.27;;;11.55;;
20073;SDS011;10197;54.282;10.078;2022-11-25T00:47:59;18.52;;;11.80;;
20073;SDS011;10197;54.282;10.078;2022-11-25T00:50:26;21.08;;;13.35;;
20073;SDS011;10197;54.282;10.078;2022-11-25T00:52:53;16.35;;;12.43;;
20073;SDS011;10197;54.282;10.078;2022-11-25T00:55:20;20.30;;;13.40;;
20073;SDS011;10197;54.282;10.078;2022-11-25T00:57:47;23.63;;;12.70;;
20073;SDS011;10197;54.282;10.078;2022-11-25T01:00:14;19.77;;;11.48;;
20073;SDS011;10197;54.282;10.078;2022-11-25T01:02:42;24.42;;;13.35;;
20073;SDS011;10197;54.282;10.078;2022-11-25T01:05:11;28.90;;;14.02;;
20073;SDS011;10197;54.282;10.078;2022-11-25T01:07:38;21.58;;;13.00;;
20073;SDS011;10197;54.282;10.078;2022-11-25T01:10:06;25.80;;;13.18;;
20073;SDS011;10197;54.282;10.078;2022-11-25T01:12:34;20.83;;;11.80;;
20073;SDS011;10197;54.282;10.078;2022-11-25T01:15:00;23.75;;;13.63;;
20073;SDS011;10197;54.282;10.078;2022-11-25T01:17:27;22.55;;;13.48;;
20073;SDS011;10197;54.282;10.078;2022-11-25T01:19:56;18.98;;;12.98;;
20073;SDS011;10197;54.282;10.078;2022-11-25T01:22:23;21.58;;;13.68;;
20073;SDS011;10197;54.282;10.078;2022-11-25T01:24:50;20.92;;;12.60;;
20073;SDS011;10197;54.282;10.078;2022-11-25T01:27:18;19.33;;;12.75;;
20073;SDS011;10197;54.282;10.078;2022-11-25T01:29:48;32.25;;;14.20;;
20073;SDS011;10197;54.282;10.078;2022-11-25T01:32:15;17.42;;;12.38;;
20073;SDS011;10197;54.282;10.078;2022-11-25T01:34:42;21.42;;;12.68;;
20073;SDS011;10197;54.282;10.078;2022-11-25T01:37:10;24.92;;;13.02;;
20073;SDS011;10197;54.282;10.078;2022-11-25T01:39:37;19.10;;;12.75;;
20073;SDS011;10197;54.282;10.078;2022-11-25T01:42:04;18.48;;;11.38;;
20073;SDS011;10197;54.282;10.078;2022-11-25T01:44:31;20.92;;;12.95;;
20073;SDS011;10197;54.282;10.078;2022-11-25T01:47:08;17.40;;;11.73;;
20073;SDS011;10197;54.282;10.078;2022-11-25T01:49:39;20.02;;;11.70;;
20073;SDS011;10197;54.282;10.078;2022-11-25T01:52:11;19.50;;;11.82;;
20073;SDS011;10197;54.282;10.078;2022-11-25T01:54:41;18.35;;;11.60;;
20073;SDS011;10197;54.282;10.078;2022-11-25T01:57:11;16.23;;;11.35;;
20073;SDS011;10197;54.282;10.078;2022-11-25T01:59:42;17.25;;;12.10;;
20073;SDS011;10197;54.282;10.078;2022-11-25T02:02:11;17.15;;;11.88;;
20073;SDS011;10197;54.282;10.078;2022-11-25T02:04:39;21.70;;;12.07;;
20073;SDS011;10197;54.282;10.078;2022-11-25T02:07:08;17.52;;;11.52;;
20073;SDS011;10197;54.282;10.078;2022-11-25T02:09:41;23.48;;;12.70;;
20073;SDS011;10197;54.282;10.078;2022-11-25T02:12:09;22.80;;;13.15;;
20073;SDS011;10197;54.282;10.078;2022-11-25T02:14:36;19.00;;;12.18;;
20073;SDS011;10197;54.282;10.078;2022-11-25T02:17:03;19.23;;;11.55;;
20073;SDS011;10197;54.282;10.078;2022-11-25T02:19:37;18.92;;;11.45;;
20073;SDS011;10197;54.282;10.078;2022-11-25T02:22:10;15.38;;;11.93;;
20073;SDS011;10197;54.282;10.078;2022-11-25T02:24:46;17.90;;;11.85;;
20073;SDS011;10197;54.282;10.078;2022-11-25T02:27:17;14.63;;;10.55;;
20073;SDS011;10197;54.282;10.078;2022-11-25T02:29:44;17.23;;;11.63;;
20073;SDS011;10197;54.282;10.078;2022-11-25T02:32:11;18.08;;;11.77;;
20073;SDS011;10197;54.282;10.078;2022-11-25T02:34:45;15.60;;;10.60;;
20073;SDS011;10197;54.282;10.078;2022-11-25T02:37:12;17.70;;;11.10;;
20073;SDS011;10197;54.282;10.078;2022-11-25T02:39:39;17.92;;;11.07;;
20073;SDS011;10197;54.282;10.078;2022-11-25T02:42:06;16.52;;;10.80;;
20073;SDS011;10197;54.282;10.078;2022-11-25T02:44:36;13.80;;;10.82;;
20073;SDS011;10197;54.282;10.078;2022-11-25T02:47:03;16.88;;;11.48;;
20073;SDS011;10197;54.282;10.078;2022-11-25T02:49:30;15.05;;;10.90;;
20073;SDS011;10197;54.282;10.078;2022-11-25T02:51:57;15.95;;;11.02;;
20073;SDS011;10197;54.282;10.078;2022-11-25T02:54:26;17.27;;;12.02;;
20073;SDS011;10197;54.282;10.078;2022-11-25T02:56:53;17.30;;;10.98;;
20073;SDS011;10197;54.282;10.078;2022-11-25T02:59:20;18.08;;;10.77;;
20073;SDS011;10197;54.282;10.078;2022-11-25T03:01:48;15.88;;;11.32;;
20073;SDS011;10197;54.282;10.078;2022-11-25T03:04:15;15.07;;;10.80;;
20073;SDS011;10197;54.282;10.078;2022-11-25T03:06:43;18.55;;;11.55;;
20073;SDS011;10197;54.282;10.078;2022-11-25T03:09:10;17.45;;;11.43;;
20073;SDS011;10197;54.282;10.078;2022-11-25T03:11:37;17.17;;;11.10;;
20073;SDS011;10197;54.282;10.078;2022-11-25T03:14:22;13.75;;;10.27;;
20073;SDS011;10197;54.282;10.078;2022-11-25T03:16:51;14.70;;;10.75;;
20073;SDS011;10197;54.282;10.078;2022-11-25T03:19:19;15.77;;;10.98;;
20073;SDS011;10197;54.282;10.078;2022-11-25T03:21:45;16.05;;;11.05;;
20073;SDS011;10197;54.282;10.078;2022-11-25T03:24:12;17.35;;;11.57;;
20073;SDS011;10197;54.282;10.078;2022-11-25T03:26:39;20.58;;;11.60;;
20073;SDS011;10197;54.282;10.078;2022-11-25T03:29:06;17.75;;;11.85;;
20073;SDS011;10197;54.282;10.078;2022-11-25T03:31:33;18.63;;;11.95;;
20073;SDS011;10197;54.282;10.078;2022-11-25T03:34:02;23.73;;;12.45;;
20073;SDS011;10197;54.282;10.078;2022-11-25T03:36:29;17.67;;;11.82;;
20073;SDS011;10197;54.282;10.078;2022-11-25T03:38:56;14.88;;;11.55;;
20073;SDS011;10197;54.282;10.078;2022-11-25T03:41:24;14.50;;;10.85;;
20073;SDS011;10197;54.282;10.078;2022-11-25T03:43:51;13.77;;;10.75;;
20073;SDS011;10197;54.282;10.078;2022-11-25T03:46:18;16.25;;;11.50;;
20073;SDS011;10197;54.282;10.078;2022-11-25T03:48:45;19.42;;;11.88;;
20073;SDS011;10197;54.282;10.078;2022-11-25T03:51:13;15.68;;;11.77;;
20073;SDS011;10197;54.282;10.078;2022-11-25T03:53:42;15.98;;;11.80;;
20073;SDS011;10197;54.282;10.078;2022-11-25T03:56:09;16.02;;;11.80;;
20073;SDS011;10197;54.282;10.078;2022-11-25T03:58:36;16.35;;;12.20;;
20073;SDS011;10197;54.282;10.078;2022-11-25T04:01:04;17.20;;;11.90;;
20073;SDS011;10197;54.282;10.078;2022-11-25T04:03:32;18.08;;;12.50;;
20073;SDS011;10197;54.282;10.078;2022-11-25T04:05:59;18.48;;;13.05;;
20073;SDS011;10197;54.282;10.078;2022-11-25T04:08:29;15.63;;;11.80;;
20073;SDS011;10197;54.282;10.078;2022-11-25T04:10:56;15.63;;;11.88;;
20073;SDS011;10197;54.282;10.078;2022-11-25T04:13:27;16.70;;;11.95;;
20073;SDS011;10197;54.282;10.078;2022-11-25T04:15:53;17.10;;;11.23;;
20073;SDS011;10197;54.282;10.078;2022-11-25T04:18:20;16.92;;;10.38;;
20073;SDS011;10197;54.282;10.078;2022-11-25T04:20:51;16.52;;;11.80;;
20073;SDS011;10197;54.282;10.078;2022-11-25T04:23:18;15.55;;;11.20;;
20073;SDS011;10197;54.282;10.078;2022-11-25T04:26:01;15.20;;;11.05;;
20073;SDS011;10197;54.282;10.078;2022-11-25T04:28:33;15.38;;;11.52;;
20073;SDS011;10197;54.282;10.078;2022-11-25T04:31:04;15.48;;;11.27;;
20073;SDS011;10197;54.282;10.078;2022-11-25T04:33:33;17.98;;;12.73;;
20073;SDS011;10197;54.282;10.078;2022-11-25T04:36:00;24.40;;;12.90;;
20073;SDS011;10197;54.282;10.078;2022-11-25T04:38:27;18.25;;;11.88;;
20073;SDS011;10197;54.282;10.078;2022-11-25T04:40:56;18.67;;;12.07;;
20073;SDS011;10197;54.282;10.078;2022-11-25T04:43:26;15.07;;;10.63;;
20073;SDS011;10197;54.282;10.078;2022-11-25T04:46:03;17.83;;;12.63;;
20073;SDS011;10197;54.282;10.078;2022-11-25T04:48:30;15.93;;;11.60;;
20073;SDS011;10197;54.282;10.078;2022-11-25T04:50:57;15.57;;;10.45;;
20073;SDS011;10197;54.282;10.078;2022-11-25T04:53:25;17.02;;;12.27;;
20073;SDS011;10197;54.282;10.078;2022-11-25T04:55:53;17.90;;;12.32;;
20073;SDS011;10197;54.282;10.078;2022-11-25T04:58:20;17.35;;;12.23;;
20073;SDS011;10197;54.282;10.078;2022-11-25T05:01:03;18.10;;;12.73;;
20073;SDS011;10197;54.282;10.078;2022-11-25T05:03:30;18.63;;;12.57;;
20073;SDS011;10197;54.282;10.078;2022-11-25T05:05:57;18.77;;;12.85;;
20073;SDS011;10197;54.282;10.078;2022-11-25T05:08:25;20.33;;;13.18;;
20073;SDS011;10197;54.282;10.078;2022-11-25T05:10:53;17.85;;;12.98;;
20073;SDS011;10197;54.282;10.078;2022-11-25T05:13:21;19.05;;;13.02;;
20073;SDS011;10197;54.282;10.078;2022-11-25T05:15:48;19.73;;;13.13;;
20073;SDS011;10197;54.282;10.078;2022-11-25T05:18:17;21.60;;;13.98;;
20073;SDS011;10197;54.282;10.078;2022-11-25T05:20:46;21.60;;;13.40;;
20073;SDS011;10197;54.282;10.078;2022-11-25T05:23:17;21.83;;;13.82;;
20073;SDS011;10197;54.282;10.078;2022-11-25T05:25:44;22.67;;;13.95;;
20073;SDS011;10197;54.282;10.078;2022-11-25T05:28:26;20.95;;;13.18;;
20073;SDS011;10197;54.282;10.078;2022-11-25T05:30:53;23.15;;;13.32;;
20073;SDS011;10197;54.282;10.078;2022-11-25T05:33:21;20.58;;;13.57;;
20073;SDS011;10197;54.282;10.078;2022-11-25T05:35:53;21.67;;;13.23;;
20073;SDS011;10197;54.282;10.078;2022-11-25T05:38:22;19.40;;;13.52;;
20073;SDS011;10197;54.282;10.078;2022-11-25T05:40:50;20.30;;;12.82;;
20073;SDS011;10197;54.282;10.078;2022-11-25T05:43:17;23.15;;;13.15;;
20073;SDS011;10197;54.282;10.078;2022-11-25T05:45:45;22.92;;;14.55;;
20073;SDS011;10197;54.282;10.078;2022-11-25T05:48:13;20.70;;;14.05;;
20073;SDS011;10197;54.282;10.078;2022-11-25T05:50:42;23.98;;;14.57;;
20073;SDS011;10197;54.282;10.078;2022-11-25T05:53:18;20.55;;;12.98;;
20073;SDS011;10197;54.282;10.078;2022-11-25T05:55:52;21.27;;;14.15;;
20073;SDS011;10197;54.282;10.078;2022-11-25T05:58:40;22.42;;;14.27;;
20073;SDS011;10197;54.282;10.078;2022-11-25T06:01:08;23.00;;;14.18;;
20073;SDS011;10197;54.282;10.078;2022-11-25T06:03:36;21.63;;;14.52;;
20073;SDS011;10197;54.282;10.078;2022-11-25T06:06:06;20.67;;;13.85;;
20073;SDS011;10197;54.282;10.078;2022-11-25T06:08:34;24.05;;;14.98;;
20073;SDS011;10197;54.282;10.078;2022-11-25T06:11:04;22.42;;;13.80;;
20073;SDS011;10197;54.282;10.078;2022-11-25T06:13:32;25.70;;;15.45;;
20073;SDS011;10197;54.282;10.078;2022-11-25T06:15:59;21.77;;;14.50;;
20073;SDS011;10197;54.282;10.078;2022-11-25T06:18:32;20.40;;;13.77;;
20073;SDS011;10197;54.282;10.078;2022-11-25T06:21:01;25.30;;;14.65;;
20073;SDS011;10197;54.282;10.078;2022-11-25T06:23:29;23.65;;;15.60;;
20073;SDS011;10197;54.282;10.078;2022-11-25T06:26:01;23.75;;;13.38;;
20073;SDS011;10197;54.282;10.078;2022-11-25T06:28:30;20.15;;;13.70;;
20073;SDS011;10197;54.282;10.078;2022-11-25T06:31:03;23.00;;;15.07;;
20073;SDS011;10197;54.282;10.078;2022-11-25T06:33:36;20.98;;;12.77;;
20073;SDS011;10197;54.282;10.078;2022-11-25T06:36:07;19.20;;;12.85;;
20073;SDS011;10197;54.282;10.078;2022-11-25T06:38:39;22.92;;;15.05;;
20073;SDS011;10197;54.282;10.078;2022-11-25T06:41:06;21.17;;;13.88;;
20073;SDS011;10197;54.282;10.078;2022-11-25T06:43:33;23.10;;;13.65;;
20073;SDS011;10197;54.282;10.078;2022-11-25T06:46:00;22.35;;;13.52;;
20073;SDS011;10197;54.282;10.078;2022-11-25T06:48:28;26.83;;;15.32;;
20073;SDS011;10197;54.282;10.078;2022-11-25T06:50:56;21.80;;;13.30;;
20073;SDS011;10197;54.282;10.078;2022-11-25T06:53:23;21.15;;;13.90;;
20073;SDS011;10197;54.282;10.078;2022-11-25T06:56:02;23.65;;;14.00;;
20073;SDS011;10197;54.282;10.078;2022-11-25T06:58:39;19.40;;;12.73;;
20073;SDS011;10197;54.282;10.078;2022-11-25T07:01:13;21.58;;;13.23;;
20073;SDS011;10197;54.282;10.078;2022-11-25T07:03:42;21.35;;;13.15;;
20073;SDS011;10197;54.282;10.078;2022-11-25T07:06:11;21.48;;;12.95;;
20073;SDS011;10197;54.282;10.078;2022-11-25T07:08:39;20.67;;;12.18;;
20073;SDS011;10197;54.282;10.078;2022-11-25T07:11:08;19.27;;;12.15;;
20073;SDS011;10197;54.282;10.078;2022-11-25T07:13:37;21.65;;;12.80;;
20073;SDS011;10197;54.282;10.078;2022-11-25T07:16:05;21.00;;;12.65;;
20073;SDS011;10197;54.282;10.078;2022-11-25T07:18:33;22.45;;;12.85;;
20073;SDS011;10197;54.282;10.078;2022-11-25T07:21:03;17.17;;;11.85;;
20073;SDS011;10197;54.282;10.078;2022-11-25T07:23:31;18.40;;;11.63;;
20073;SDS011;10197;54.282;10.078;2022-11-25T07:26:01;26.48;;;13.55;;
20073;SDS011;10197;54.282;10.078;2022-11-25T07:28:31;20.75;;;12.68;;
20073;SDS011;10197;54.282;10.078;2022-11-25T07:31:05;17.60;;;11.60;;
20073;SDS011;10197;54.282;10.078;2022-11-25T07:33:33;18.98;;;11.82;;
20073;SDS011;10197;54.282;10.078;2022-11-25T07:36:01;14.60;;;9.48;;
20073;SDS011;10197;54.282;10.078;2022-11-25T07:38:29;19.75;;;12.02;;
20073;SDS011;10197;54.282;10.078;2022-11-25T07:41:01;15.77;;;11.27;;
20073;SDS011;10197;54.282;10.078;2022-11-25T07:43:29;18.02;;;12.38;;
20073;SDS011;10197;54.282;10.078;2022-11-25T07:46:08;16.95;;;12.00;;
20073;SDS011;10197;54.282;10.078;2022-11-25T07:48:36;15.52;;;10.90;;
20073;SDS011;10197;54.282;10.078;2022-11-25T07:51:03;19.60;;;11.68;;
20073;SDS011;10197;54.282;10.078;2022-11-25T07:53:30;21.00;;;11.32;;
20073;SDS011;10197;54.282;10.078;2022-11-25T07:55:59;17.90;;;10.45;;
20073;SDS011;10197;54.282;10.078;2022-11-25T07:58:26;14.40;;;10.05;;
20073;SDS011;10197;54.282;10.078;2022-11-25T08:00:53;18.55;;;11.07;;
20073;SDS011;10197;54.282;10.078;2022-11-25T08:03:21;14.80;;;10.63;;
20073;SDS011;10197;54.282;10.078;2022-11-25T08:05:48;14.20;;;9.85;;
20073;SDS011;10197;54.282;10.078;2022-11-25T08:08:15;15.48;;;10.63;;
20073;SDS011;10197;54.282;10.078;2022-11-25T08:10:42;17.73;;;10.75;;
20073;SDS011;10197;54.282;10.078;2022-11-25T08:13:09;15.48;;;9.43;;
20073;SDS011;10197;54.282;10.078;2022-11-25T08:15:37;13.75;;;9.07;;
20073;SDS011;10197;54.282;10.078;2022-11-25T08:18:03;14.70;;;9.15;;
20073;SDS011;10197;54.282;10.078;2022-11-25T08:20:32;15.70;;;9.43;;
20073;SDS011;10197;54.282;10.078;2022-11-25T08:22:59;15.50;;;8.55;;
20073;SDS011;10197;54.282;10.078;2022-11-25T08:25:26;12.88;;;9.25;;
20073;SDS011;10197;54.282;10.078;2022-11-25T08:27:54;15.02;;;9.85;;
20073;SDS011;10197;54.282;10.078;2022-11-25T08:30:20;18.83;;;9.73;;
20073;SDS011;10197;54.282;10.078;2022-11-25T08:32:50;12.38;;;9.32;;
20073;SDS011;10197;54.282;10.078;2022-11-25T08:35:17;14.88;;;8.90;;
20073;SDS011;10197;54.282;10.078;2022-11-25T08:37:46;11.25;;;7.95;;
20073;SDS011;10197;54.282;10.078;2022-11-25T08:40:13;13.93;;;8.75;;
20073;SDS011;10197;54.282;10.078;2022-11-25T08:42:40;15.85;;;9.23;;
20073;SDS011;10197;54.282;10.078;2022-11-25T08:45:07;14.30;;;8.98;;
20073;SDS011;10197;54.282;10.078;2022-11-25T08:47:35;13.45;;;7.78;;
20073;SDS011;10197;54.282;10.078;2022-11-25T08:50:03;12.90;;;8.23;;
20073;SDS011;10197;54.282;10.078;2022-11-25T08:52:31;14.05;;;8.93;;
20073;SDS011;10197;54.282;10.078;2022-11-25T08:54:59;14.68;;;9.18;;
20073;SDS011;10197;54.282;10.078;2022-11-25T08:57:26;11.32;;;8.25;;
20073;SDS011;10197;54.282;10.078;2022-11-25T08:59:53;12.68;;;8.43;;
20073;SDS011;10197;54.282;10.078;2022-11-25T09:02:20;15.45;;;10.38;;
20073;SDS011;10197;54.282;10.078;2022-11-25T09:04:47;15.43;;;9.45;;
20073;SDS011;10197;54.282;10.078;2022-11-25T09:07:14;15.63;;;9.98;;
20073;SDS011;10197;54.282;10.078;2022-11-25T09:09:41;16.20;;;10.45;;
20073;SDS011;10197;54.282;10.078;2022-11-25T09:12:09;15.88;;;10.43;;
20073;SDS011;10197;54.282;10.078;2022-11-25T09:14:36;18.33;;;9.70;;
20073;SDS011;10197;54.282;10.078;2022-11-25T09:17:07;17.40;;;9.63;;
20073;SDS011;10197;54.282;10.078;2022-11-25T09:19:34;15.13;;;9.50;;
20073;SDS011;10197;54.282;10.078;2022-11-25T09:22:01;16.50;;;10.48;;
20073;SDS011;10197;54.282;10.078;2022-11-25T09:24:28;18.50;;;10.00;;
20073;SDS011;10197;54.282;10.078;2022-11-25T09:26:55;16.38;;;9.90;;
20073;SDS011;10197;54.282;10.078;2022-11-25T09:29:24;16.23;;;10.18;;
20073;SDS011;10197;54.282;10.078;2022-11-25T09:31:52;17.48;;;9.95;;
20073;SDS011;10197;54.282;10.078;2022-11-25T09:34:19;16.33;;;10.32;;
20073;SDS011;10197;54.282;10.078;2022-11-25T09:36:48;14.60;;;9.15;;
20073;SDS011;10197;54.282;10.078;2022-11-25T09:39:16;18.75;;;9.93;;
20073;SDS011;10197;54.282;10.078;2022-11-25T09:41:50;14.50;;;9.00;;
20073;SDS011;10197;54.282;10.078;2022-11-25T09:44:43;16.50;;;9.32;;
20073;SDS011;10197;54.282;10.078;2022-11-25T09:47:37;14.98;;;9.57;;
20073;SDS011;10197;54.282;10.078;2022-11-25T09:50:11;12.40;;;8.70;;
20073;SDS011;10197;54.282;10.078;2022-11-25T09:52:45;15.40;;;9.55;;
20073;SDS011;10197;54.282;10.078;2022-11-25T09:55:16;15.63;;;9.35;;
20073;SDS011;10197;54.282;10.078;2022-11-25T09:57:52;15.98;;;9.13;;
20073;SDS011;10197;54.282;10.078;2022-11-25T10:00:24;17.20;;;8.82;;
20073;SDS011;10197;54.282;10.078;2022-11-25T10:02:57;14.55;;;8.25;;
20073;SDS011;10197;54.282;10.078;2022-11-25T10:05:27;15.13;;;8.30;;
20073;SDS011;10197;54.282;10.078;2022-11-25T10:07:58;17.77;;;8.38;;
20073;SDS011;10197;54.282;10.078;2022-11-25T10:10:28;14.98;;;8.95;;
20073;SDS011;10197;54.282;10.078;2022-11-25T10:12:57;16.02;;;8.70;;
20073;SDS011;10197;54.282;10.078;2022-11-25T10:15:26;13.20;;;7.90;;
20073;SDS011;10197;54.282;10.078;2022-11-25T10:17:57;15.10;;;8.55;;
20073;SDS011;10197;54.282;10.078;2022-11-25T10:20:27;15.20;;;9.13;;
20073;SDS011;10197;54.282;10.078;2022-11-25T10:22:59;16.65;;;9.25;;
20073;SDS011;10197;54.282;10.078;2022-11-25T10:25:29;17.08;;;9.95;;
20073;SDS011;10197;54.282;10.078;2022-11-25T10:27:58;20.23;;;9.68;;
20073;SDS011;10197;54.282;10.078;2022-11-25T10:30:31;15.63;;;9.48;;
20073;SDS011;10197;54.282;10.078;2022-11-25T10:33:02;17.67;;;9.00;;
20073;SDS011;10197;54.282;10.078;2022-11-25T10:35:37;16.35;;;9.05;;
20073;SDS011;10197;54.282;10.078;2022-11-25T10:38:06;13.13;;;8.13;;
20073;SDS011;10197;54.282;10.078;2022-11-25T10:40:41;16.80;;;7.40;;
20073;SDS011;10197;54.282;10.078;2022-11-25T10:43:10;12.25;;;8.02;;
20073;SDS011;10197;54.282;10.078;2022-11-25T10:45:40;14.05;;;7.80;;
20073;SDS011;10197;54.282;10.078;2022-11-25T10:48:19;14.63;;;7.97;;
20073;SDS011;10197;54.282;10.078;2022-11-25T10:51:01;12.82;;;8.10;;
20073;SDS011;10197;54.282;10.078;2022-11-25T10:53:33;14.23;;;7.60;;
20073;SDS011;10197;54.282;10.078;2022-11-25T10:56:00;14.88;;;7.30;;
20073;SDS011;10197;54.282;10.078;2022-11-25T10:58:29;13.60;;;7.70;;
20073;SDS011;10197;54.282;10.078;2022-11-25T11:01:12;16.92;;;7.57;;
20073;SDS011;10197;54.282;10.078;2022-11-25T11:03:40;16.42;;;8.90;;
20073;SDS011;10197;54.282;10.078;2022-11-25T11:06:25;13.77;;;8.15;;
20073;SDS011;10197;54.282;10.078;2022-11-25T11:08:54;13.35;;;7.38;;
20073;SDS011;10197;54.282;10.078;2022-11-25T11:11:22;11.77;;;6.88;;
20073;SDS011;10197;54.282;10.078;2022-11-25T11:13:49;11.52;;;6.55;;
20073;SDS011;10197;54.282;10.078;2022-11-25T11:16:29;12.23;;;7.10;;
20073;SDS011;10197;54.282;10.078;2022-11-25T11:18:59;12.05;;;6.78;;
20073;SDS011;10197;54.282;10.078;2022-11-25T11:21:30;12.48;;;6.70;;
20073;SDS011;10197;54.282;10.078;2022-11-25T11:23:59;15.50;;;6.47;;
20073;SDS011;10197;54.282;10.078;2022-11-25T11:26:27;10.13;;;6.40;;
20073;SDS011;10197;54.282;10.078;2022-11-25T11:29:03;11.88;;;7.03;;
20073;SDS011;10197;54.282;10.078;2022-11-25T11:31:33;14.73;;;7.22;;
20073;SDS011;10197;54.282;10.078;2022-11-25T11:34:10;13.00;;;6.90;;
20073;SDS011;10197;54.282;10.078;2022-11-25T11:36:53;10.63;;;6.43;;
20073;SDS011;10197;54.282;10.078;2022-11-25T11:39:27;14.77;;;7.53;;
20073;SDS011;10197;54.282;10.078;2022-11-25T11:42:17;12.63;;;7.00;;
20073;SDS011;10197;54.282;10.078;2022-11-25T11:44:53;12.38;;;7.05;;
20073;SDS011;10197;54.282;10.078;2022-11-25T11:47:29;11.57;;;7.00;;
20073;SDS011;10197;54.282;10.078;2022-11-25T11:50:17;11.52;;;6.70;;
20073;SDS011;10197;54.282;10.078;2022-11-25T11:52:51;11.98;;;7.20;;
20073;SDS011;10197;54.282;10.078;2022-11-25T11:55:27;11.07;;;6.60;;
20073;SDS011;10197;54.282;10.078;2022-11-25T11:58:03;12.55;;;7.00;;
20073;SDS011;10197;54.282;10.078;2022-11-25T12:00:39;13.60;;;6.95;;
20073;SDS011;10197;54.282;10.078;2022-11-25T12:03:15;11.82;;;7.10;;
20073;SDS011;10197;54.282;10.078;2022-11-25T12:05:43;9.73;;;6.25;;
20073;SDS011;10197;54.282;10.078;2022-11-25T12:08:12;12.70;;;7.38;;
20073;SDS011;10197;54.282;10.078;2022-11-25T12:10:42;11.02;;;6.82;;
20073;SDS011;10197;54.282;10.078;2022-11-25T12:13:13;10.25;;;6.93;;
20073;SDS011;10197;54.282;10.078;2022-11-25T12:15:44;13.43;;;7.65;;
20073;SDS011;10197;54.282;10.078;2022-11-25T12:18:19;12.65;;;7.68;;
20073;SDS011;10197;54.282;10.078;2022-11-25T12:20:52;12.43;;;6.90;;
20073;SDS011;10197;54.282;10.078;2022-11-25T12:23:25;12.35;;;6.88;;
20073;SDS011;10197;54.282;10.078;2022-11-25T12:25:57;12.18;;;6.70;;
20073;SDS011;10197;54.282;10.078;2022-11-25T12:28:28;13.00;;;7.63;;
20073;SDS011;10197;54.282;10.078;2022-11-25T12:31:01;8.15;;;6.15;;
20073;SDS011;10197;54.282;10.078;2022-11-25T12:33:38;11.55;;;6.57;;
20073;SDS011;10197;54.282;10.078;2022-11-25T12:36:10;11.80;;;7.30;;
20073;SDS011;10197;54.282;10.078;2022-11-25T12:38:41;14.30;;;7.75;;
20073;SDS011;10197;54.282;10.078;2022-11-25T12:41:15;10.70;;;7.60;;
20073;SDS011;10197;54.282;10.078;2022-11-25T12:43:46;10.60;;;7.35;;
20073;SDS011;10197;54.282;10.078;2022-11-25T12:46:20;12.50;;;7.60;;
20073;SDS011;10197;54.282;10.078;2022-11-25T12:48:51;11.10;;;7.45;;
20073;SDS011;10197;54.282;10.078;2022-11-25T12:51:27;8.90;;;7.10;;
20073;SDS011;10197;54.282;10.078;2022-11-25T12:54:05;10.75;;;6.45;;
20073;SDS011;10197;54.282;10.078;2022-11-25T12:56:47;11.95;;;6.88;;
20073;SDS011;10197;54.282;10.078;2022-11-25T12:59:36;10.15;;;6.97;;
20073;SDS011;10197;54.282;10.078;2022-11-25T13:08:13;10.43;;;6.78;;
20073;SDS011;10197;54.282;10.078;2022-11-25T13:10:51;12.45;;;7.32;;
20073;SDS011;10197;54.282;10.078;2022-11-25T13:13:29;16.45;;;7.88;;
20073;SDS011;10197;54.282;10.078;2022-11-25T13:16:02;14.52;;;8.77;;
20073;SDS011;10197;54.282;10.078;2022-11-25T13:18:36;11.73;;;7.55;;
20073;SDS011;10197;54.282;10.078;2022-11-25T13:21:06;10.95;;;7.85;;
20073;SDS011;10197;54.282;10.078;2022-11-25T13:23:44;16.65;;;9.02;;
20073;SDS011;10197;54.282;10.078;2022-11-25T13:32:23;16.70;;;10.27;;
20073;SDS011;10197;54.282;10.078;2022-11-25T13:34:59;14.88;;;8.77;;
20073;SDS011;10197;54.282;10.078;2022-11-25T13:41:23;14.45;;;9.13;;
20073;SDS011;10197;54.282;10.078;2022-11-25T13:43:54;13.43;;;7.95;;
20073;SDS011;10197;54.282;10.078;2022-11-25T13:46:27;13.27;;;8.85;;
20073;SDS011;10197;54.282;10.078;2022-11-25T13:48:57;16.63;;;8.88;;
20073;SDS011;10197;54.282;10.078;2022-11-25T13:51:24;18.92;;;10.30;;
20073;SDS011;10197;54.282;10.078;2022-11-25T13:53:52;15.50;;;9.45;;
20073;SDS011;10197;54.282;10.078;2022-11-25T13:56:26;14.23;;;9.13;;
20073;SDS011;10197;54.282;10.078;2022-11-25T14:05:01;15.35;;;9.52;;
20073;SDS011;10197;54.282;10.078;2022-11-25T14:07:40;19.38;;;10.98;;
20073;SDS011;10197;54.282;10.078;2022-11-25T14:10:16;20.88;;;11.70;;
20073;SDS011;10197;54.282;10.078;2022-11-25T14:13:02;21.58;;;11.23;;
20073;SDS011;10197;54.282;10.078;2022-11-25T14:15:45;15.98;;;10.55;;
20073;SDS011;10197;54.282;10.078;2022-11-25T14:18:23;17.60;;;10.60;;
20073;SDS011;10197;54.282;10.078;2022-11-25T14:21:00;18.38;;;10.73;;
20073;SDS011;10197;54.282;10.078;2022-11-25T14:26:24;13.55;;;9.43;;
20073;SDS011;10197;54.282;10.078;2022-11-25T14:28:54;14.30;;;8.95;;
20073;SDS011;10197;54.282;10.078;2022-11-25T14:31:29;16.13;;;10.05;;
20073;SDS011;10197;54.282;10.078;2022-11-25T14:34:07;22.67;;;11.98;;
20073;SDS011;10197;54.282;10.078;2022-11-25T14:36:38;23.67;;;11.68;;
20073;SDS011;10197;54.282;10.078;2022-11-25T14:39:09;21.85;;;11.93;;
20073;SDS011;10197;54.282;10.078;2022-11-25T14:41:48;22.02;;;12.10;;
20073;SDS011;10197;54.282;10.078;2022-11-25T14:44:23;22.23;;;12.10;;
20073;SDS011;10197;54.282;10.078;2022-11-25T14:46:56;16.00;;;9.95;;
20073;SDS011;10197;54.282;10.078;2022-11-25T14:49:28;19.08;;;10.50;;
20073;SDS011;10197;54.282;10.078;2022-11-25T14:52:14;20.83;;;12.20;;
20073;SDS011;10197;54.282;10.078;2022-11-25T14:54:42;22.42;;;11.57;;
20073;SDS011;10197;54.282;10.078;2022-11-25T14:57:12;20.90;;;12.57;;